»·PEaware :: WAT451 KSEA-KRNO

WAT451 :: KSEA-KRNO

FLIGHT INFORMATION

Flight Status: Arrived
Operator:
Walker Air Transport
More flights by this operator :: More flights under this callsign
Pilot: Anonymous 14874 (14874)
Aircraft: AIRBUS A319
(A319)
More flights by this aircraft type
Origin: KSEA Seattle-Tacoma Intl
United States
Destination: KRNO Reno/Tahoe Intl
United States
More flights between these airports :: More routes between these airports
Route: SUMMA2 LKV HARTT HARTT1
File this flight plan on PilotEdge
Remarks:
Altitude:
(Current/Filed)
37,000ft
Speed:
(Current/Filed)
451kts
Departed: 28-Jan-21 11:14 AM
Arrived: 28-Jan-21 12:33 PM
Distance/Time
Traveled:
489nm/1:19
Distance/Time
To Go:
Arrived

Flight Plot

Page will automatically refresh every two minutes.

Flight plan parsing failed; only flown route is shown


Map Options




Map Legend


Flown Route
Filed Route
Departure Airport
Arrival Airport
Navaid (VOR, NDB)
Fix

Horizontal Profiles

Position Reports

Time Latitude Longitude Heading Altitude Ground
Speed
28-Jan-21 10:44 47.442514 -122.304566 129 435ft 0kts
28-Jan-21 10:45 47.442514 -122.304566 129 435ft 0kts
28-Jan-21 10:46 47.442514 -122.304566 129 435ft 0kts
28-Jan-21 10:47 47.442514 -122.304566 129 435ft 0kts
28-Jan-21 10:48 47.442514 -122.304566 129 435ft 0kts
28-Jan-21 10:49 47.442514 -122.304566 129 435ft 0kts
28-Jan-21 10:50 47.442514 -122.304566 129 435ft 0kts
28-Jan-21 10:51 47.442514 -122.304566 129 435ft 0kts
28-Jan-21 10:52 47.442514 -122.304566 129 435ft 0kts
28-Jan-21 10:53 47.442514 -122.304566 129 435ft 0kts
28-Jan-21 10:54 47.442514 -122.304566 129 435ft 0kts
28-Jan-21 10:55 47.442514 -122.304566 129 435ft 0kts
28-Jan-21 10:56 47.442514 -122.304566 129 435ft 0kts
28-Jan-21 10:57 47.442514 -122.304566 129 435ft 0kts
28-Jan-21 10:58 47.442514 -122.304566 129 435ft 0kts
28-Jan-21 10:59 47.442515 -122.304567 129 435ft 0kts
28-Jan-21 11:00 47.442515 -122.304567 129 435ft 0kts
28-Jan-21 11:01 47.442515 -122.304567 129 435ft 0kts
28-Jan-21 11:02 47.442515 -122.304567 129 435ft 0kts
28-Jan-21 11:03 47.442905 -122.305032 182 435ft 2kts
28-Jan-21 11:04 47.443207 -122.304526 271 435ft 1kts
28-Jan-21 11:05 47.443207 -122.304515 271 435ft 0kts
28-Jan-21 11:06 47.443207 -122.304515 271 435ft 0kts
28-Jan-21 11:07 47.444638 -122.306306 359 435ft 14kts
28-Jan-21 11:08 47.449594 -122.306278 0 435ft 19kts
28-Jan-21 11:09 47.455466 -122.306258 0 435ft 20kts
28-Jan-21 11:10 47.461508 -122.306183 0 435ft 20kts
28-Jan-21 11:11 47.463512 -122.306238 318 435ft 0kts
28-Jan-21 11:12 47.463701 -122.306890 269 435ft 8kts
28-Jan-21 11:13 47.448010 -122.307929 180 458ft 164kts
28-Jan-21 11:14 47.400029 -122.312406 187 3073ft 188kts
28-Jan-21 11:15 47.338314 -122.310496 178 4838ft 257kts
28-Jan-21 11:16 47.260220 -122.309492 179 8171ft 272kts
28-Jan-21 11:17 47.188868 -122.267882 155 8981ft 273kts
28-Jan-21 11:18 47.115027 -122.232105 162 8989ft 272kts
28-Jan-21 11:19 47.036457 -122.193518 163 11225ft 297kts
28-Jan-21 11:21 46.935116 -122.143559 164 14708ft 319kts
28-Jan-21 11:21 46.858217 -122.105759 165 17159ft 327kts
28-Jan-21 11:22 46.763222 -122.059212 165 19811ft 338kts
28-Jan-21 11:24 46.649591 -122.003711 166 22503ft 349kts
28-Jan-21 11:24 46.565285 -121.967995 170 23225ft 356kts
28-Jan-21 11:25 46.459975 -121.927357 170 25161ft 365kts
28-Jan-21 11:26 46.350867 -121.885520 170 26740ft 378kts
28-Jan-21 11:27 46.237037 -121.842041 169 28131ft 391kts
28-Jan-21 11:28 46.119267 -121.797263 169 29422ft 402kts
28-Jan-21 11:29 46.001445 -121.752652 169 30555ft 411kts
28-Jan-21 11:31 45.864897 -121.701165 169 32116ft 412kts
28-Jan-21 11:31 45.764496 -121.663574 168 33149ft 412kts
28-Jan-21 11:32 45.642328 -121.617956 168 34272ft 413kts
28-Jan-21 11:34 45.520752 -121.572739 168 35329ft 412kts
28-Jan-21 11:35 45.398365 -121.527420 168 36239ft 411kts
28-Jan-21 11:36 45.278372 -121.483203 168 36771ft 416kts
28-Jan-21 11:37 45.153931 -121.437558 168 36773ft 423kts
28-Jan-21 11:38 45.028238 -121.391646 168 36766ft 422kts
28-Jan-21 11:39 44.902740 -121.346003 169 36737ft 421kts
28-Jan-21 11:40 44.779353 -121.300983 169 36727ft 420kts
28-Jan-21 11:41 44.655198 -121.256178 169 36725ft 419kts
28-Jan-21 11:42 44.531249 -121.211709 169 36725ft 419kts
28-Jan-21 11:43 44.406559 -121.167157 169 36723ft 418kts
28-Jan-21 11:44 44.280642 -121.122371 169 36711ft 418kts
28-Jan-21 11:45 44.154043 -121.077548 169 36704ft 417kts
28-Jan-21 11:46 44.027842 -121.033041 170 36702ft 417kts
28-Jan-21 11:47 43.901774 -120.988763 170 36700ft 413kts
28-Jan-21 11:48 43.777466 -120.945469 170 36699ft 413kts
28-Jan-21 11:49 43.652118 -120.901873 170 36708ft 411kts
28-Jan-21 11:50 43.527836 -120.858812 170 36714ft 411kts
28-Jan-21 11:51 43.403551 -120.815937 171 36715ft 411kts
28-Jan-21 11:52 43.279351 -120.773256 171 36715ft 409kts
28-Jan-21 11:53 43.155522 -120.730886 171 36715ft 409kts
28-Jan-21 11:54 43.031646 -120.688667 171 36725ft 408kts
28-Jan-21 11:56 42.788729 -120.606452 171 36735ft 405kts
28-Jan-21 11:57 42.667733 -120.565706 171 36734ft 404kts
28-Jan-21 11:58 42.547337 -120.525269 172 36734ft 402kts
28-Jan-21 11:59 42.431918 -120.488398 174 36148ft 380kts
28-Jan-21 12:00 42.327806 -120.457494 175 35121ft 366kts
28-Jan-21 12:01 42.217949 -120.424743 177 34010ft 358kts
28-Jan-21 12:02 42.113535 -120.393706 177 32931ft 352kts
28-Jan-21 12:03 42.017330 -120.365202 177 31916ft 345kts
28-Jan-21 12:04 41.913006 -120.334096 177 30835ft 339kts
28-Jan-21 12:05 41.811786 -120.304060 178 29734ft 335kts
28-Jan-21 12:06 41.710968 -120.274479 177 28615ft 335kts
28-Jan-21 12:07 41.611688 -120.245382 176 27516ft 337kts
28-Jan-21 12:08 41.511708 -120.216193 175 26413ft 337kts
28-Jan-21 12:09 41.413841 -120.187688 174 25335ft 338kts
28-Jan-21 12:10 41.313060 -120.158435 173 24226ft 336kts
28-Jan-21 12:11 41.220993 -120.131773 173 23207ft 334kts
28-Jan-21 12:12 41.128579 -120.105117 173 22176ft 330kts
28-Jan-21 12:13 41.034688 -120.078060 173 21118ft 327kts
28-Jan-21 12:14 40.942680 -120.051668 172 20074ft 325kts
28-Jan-21 12:15 40.847597 -120.024463 172 18990ft 323kts
28-Jan-21 12:16 40.755216 -119.995142 171 17924ft 324kts
28-Jan-21 12:17 40.660090 -119.964350 171 16826ft 319kts
28-Jan-21 12:18 40.566448 -119.934192 171 15728ft 315kts
28-Jan-21 12:18 40.490269 -119.909731 171 14824ft 311kts
28-Jan-21 12:19 40.403845 -119.882078 171 13782ft 305kts
28-Jan-21 12:21 40.304841 -119.850549 171 13007ft 302kts
28-Jan-21 12:21 40.233004 -119.827680 171 13002ft 303kts
28-Jan-21 12:23 40.131292 -119.795348 171 12989ft 304kts
28-Jan-21 12:24 40.054064 -119.771083 174 12982ft 258kts
28-Jan-21 12:25 39.987649 -119.767783 184 12314ft 239kts
28-Jan-21 12:26 39.917267 -119.768119 184 11805ft 233kts
28-Jan-21 12:27 39.848146 -119.768339 180 10067ft 244kts
28-Jan-21 12:28 39.774696 -119.768457 178 8266ft 258kts
28-Jan-21 12:29 39.699882 -119.768917 178 7979ft 245kts
28-Jan-21 12:30 39.629104 -119.769051 179 6810ft 238kts
28-Jan-21 12:31 39.566635 -119.769152 180 5576ft 173kts
28-Jan-21 12:31 39.530372 -119.769294 179 4761ft 132kts
28-Jan-21 12:32 39.498628 -119.769306 181 4408ft 25kts
28-Jan-21 12:33 39.498870 -119.771479 359 4411ft 15kts
28-Jan-21 12:34 39.503572 -119.771504 359 4411ft 14kts
28-Jan-21 12:35 39.506273 -119.772770 352 4414ft 7kts
28-Jan-21 12:37 39.506571 -119.772777 358 4414ft 0kts
28-Jan-21 12:38 39.506571 -119.772777 358 4414ft 0kts

Navigation Log

Ident Type
Flight plan parsing failed, navigation log unavailable